createdAt,value
2024-05-09T00:00:36.333Z,102517.50
2024-05-09T00:03:30.949Z,102521.09
2024-05-09T00:06:01.903Z,102521.94
2024-05-09T00:08:33.254Z,102522.19
2024-05-09T00:11:06.863Z,102534.22
2024-05-09T00:13:38.074Z,102516.75
2024-05-09T00:16:09.074Z,102524.22
2024-05-09T00:18:40.280Z,102523.31
2024-05-09T00:21:12.041Z,102509.34
2024-05-09T00:23:44.264Z,102508.66
2024-05-09T00:26:20.562Z,102515.91
2024-05-09T00:28:51.651Z,102510.72
2024-05-09T00:31:22.469Z,102516.09
2024-05-09T00:33:53.562Z,102521.38
2024-05-09T00:36:24.274Z,102514.75
2024-05-09T00:38:55.447Z,102517.50
2024-05-09T00:41:28.766Z,102515.09
2024-05-09T00:44:00.101Z,102517.03
2024-05-09T00:46:30.733Z,102517.19
2024-05-09T00:49:01.884Z,102517.44
2024-05-09T00:51:32.686Z,102518.53
2024-05-09T00:54:05.582Z,102520.53
2024-05-09T00:56:39.969Z,102511.75
2024-05-09T00:59:11.438Z,102510.97
2024-05-09T01:01:43.869Z,102510.28
2024-05-09T01:04:15.142Z,102503.28
2024-05-09T01:06:45.817Z,102506.81
2024-05-09T01:09:16.961Z,102505.75
2024-05-09T01:11:50.362Z,102507.69
2024-05-09T01:14:21.806Z,102511.41
2024-05-09T01:16:52.674Z,102506.25
2024-05-09T01:19:28.748Z,102505.50
2024-05-09T01:21:59.406Z,102504.66
2024-05-09T01:24:33.171Z,102501.91
2024-05-09T01:27:03.880Z,102509.75
2024-05-09T01:29:35.149Z,102507.25
2024-05-09T01:32:06.009Z,102502.94
2024-05-09T01:34:37.199Z,102503.84
2024-05-09T01:37:07.868Z,102504.78
2024-05-09T01:39:41.645Z,102509.94
2024-05-09T01:42:12.285Z,102500.41
2024-05-09T01:44:46.967Z,102498.72
2024-05-09T01:47:17.888Z,102500.84
2024-05-09T01:49:49.130Z,102508.09
2024-05-09T01:52:19.781Z,102506.31
2024-05-09T01:54:53.551Z,102510.66
2024-05-09T01:57:24.290Z,102514.16
2024-05-09T01:59:56.525Z,102502.84
2024-05-09T02:02:27.286Z,102509.84
2024-05-09T02:04:58.545Z,102509.03
2024-05-09T02:07:29.295Z,102451.66
2024-05-09T02:10:06.570Z,102508.28
2024-05-09T02:12:39.748Z,102510.91
2024-05-09T02:15:11.304Z,102503.13
2024-05-09T02:17:42.101Z,102505.81
2024-05-09T02:20:22.474Z,102501.44
2024-05-09T02:22:58.148Z,102501.59
2024-05-09T02:25:33.074Z,102494.69
2024-05-09T02:28:04.990Z,102501.13
2024-05-09T02:30:40.460Z,102497.03
2024-05-09T02:33:14.360Z,102491.63
2024-05-09T02:35:46.293Z,102487.13
2024-05-09T02:38:14.283Z,102488.84
2024-05-09T02:40:48.261Z,102485.53
2024-05-09T02:43:16.791Z,102478.56
2024-05-09T02:45:48.073Z,102484.78
2024-05-09T02:48:18.930Z,102489.97
2024-05-09T02:50:47.581Z,102483.09
2024-05-09T02:53:19.835Z,102483.03
2024-05-09T02:55:51.126Z,102482.97
2024-05-09T02:58:21.783Z,102476.03
2024-05-09T03:00:50.253Z,102474.34
2024-05-09T03:03:21.195Z,102474.44
2024-05-09T03:05:49.807Z,102460.34
2024-05-09T03:08:20.601Z,102470.88
2024-05-09T03:10:51.828Z,102464.84
2024-05-09T03:13:22.608Z,102462.31
2024-05-09T03:15:51.173Z,102465.03
2024-05-09T03:18:22.027Z,102465.91
2024-05-09T03:20:50.788Z,102410.16
2024-05-09T03:23:23.807Z,102471.19
2024-05-09T03:25:55.080Z,102471.19
2024-05-09T03:28:25.852Z,102481.75
2024-05-09T03:30:54.455Z,102476.59
2024-05-09T03:33:25.807Z,102474.03
2024-05-09T03:35:54.701Z,102477.66
2024-05-09T03:38:25.573Z,102483.91
2024-05-09T03:41:00.127Z,102472.63
2024-05-09T03:43:30.910Z,102471.16
2024-05-09T03:46:02.196Z,102469.41
2024-05-09T03:48:30.324Z,102461.53
2024-05-09T03:51:01.475Z,102459.00
2024-05-09T03:53:29.504Z,102462.75
2024-05-09T03:56:03.862Z,102463.63
2024-05-09T03:58:33.184Z,102468.03
2024-05-09T04:01:04.296Z,102467.22
2024-05-09T04:03:34.409Z,102469.94
2024-05-09T04:06:05.707Z,102465.66
2024-05-09T04:08:33.850Z,102465.03
2024-05-09T04:11:07.911Z,102464.41
2024-05-09T04:13:35.983Z,102468.09
2024-05-09T04:16:07.525Z,102465.69
2024-05-09T04:18:35.772Z,102458.19
2024-05-09T04:21:07.453Z,102453.28
2024-05-09T04:23:35.780Z,102455.44
2024-05-09T04:26:09.925Z,102457.28
2024-05-09T04:28:37.955Z,102453.13
2024-05-09T04:31:09.150Z,102457.84
2024-05-09T04:33:37.328Z,102459.63
2024-05-09T04:36:09.535Z,102463.19
2024-05-09T04:38:37.739Z,102459.91
2024-05-09T04:41:11.713Z,102457.50
2024-05-09T04:43:39.761Z,102462.22
2024-05-09T04:46:10.899Z,102467.09
2024-05-09T04:48:39.115Z,102471.13
2024-05-09T04:51:10.508Z,102467.84
2024-05-09T04:53:40.078Z,102466.13
2024-05-09T04:56:14.403Z,102468.28
2024-05-09T04:58:42.819Z,102460.53
2024-05-09T05:01:17.360Z,102453.19
2024-05-09T05:03:45.457Z,102456.16
2024-05-09T05:06:16.826Z,102451.81
2024-05-09T05:08:45.069Z,102437.72
2024-05-09T05:11:19.066Z,102438.38
2024-05-09T05:13:47.172Z,102434.31
2024-05-09T05:16:19.338Z,102435.16
2024-05-09T05:18:47.501Z,102431.13
2024-05-09T05:21:18.822Z,102427.00
2024-05-09T05:23:47.064Z,102432.19
2024-05-09T05:26:21.213Z,102440.38
2024-05-09T05:28:49.483Z,102447.78
2024-05-09T05:31:20.701Z,102439.50
2024-05-09T05:33:49.199Z,102431.63
2024-05-09T05:36:20.531Z,102428.50
2024-05-09T05:38:48.693Z,102424.47
2024-05-09T05:41:22.643Z,102429.03
2024-05-09T05:43:53.644Z,102424.13
2024-05-09T05:46:22.082Z,102418.50
2024-05-09T05:48:52.894Z,102418.56
2024-05-09T05:51:21.621Z,102424.50
2024-05-09T05:53:52.452Z,102424.72
2024-05-09T05:56:23.703Z,102415.66
2024-05-09T05:58:54.537Z,102413.88
2024-05-09T06:01:23.081Z,102416.88
2024-05-09T06:03:53.878Z,102419.91
2024-05-09T06:06:22.765Z,102411.13
2024-05-09T06:08:53.678Z,102415.00
2024-05-09T06:11:24.983Z,102408.03
2024-05-09T06:13:55.817Z,102409.00
2024-05-09T06:16:24.280Z,102408.22
2024-05-09T06:18:55.107Z,102395.75
2024-05-09T06:21:23.795Z,102401.16
2024-05-09T06:23:54.778Z,102394.94
2024-05-09T06:26:26.051Z,102393.19
2024-05-09T06:28:56.789Z,102400.31
2024-05-09T06:31:25.615Z,102402.00
2024-05-09T06:33:56.342Z,102407.41
2024-05-09T06:36:24.952Z,102401.16
2024-05-09T06:38:55.680Z,102404.63
2024-05-09T06:41:29.492Z,102403.75
2024-05-09T06:44:01.504Z,102402.06
2024-05-09T06:46:30.048Z,102401.19
2024-05-09T06:49:04.797Z,102390.56
2024-05-09T06:51:35.979Z,102391.47
2024-05-09T06:54:06.755Z,102382.59
2024-05-09T06:56:38.851Z,102378.16
2024-05-09T06:59:09.700Z,102371.88
2024-05-09T07:01:38.355Z,102368.31
2024-05-09T07:04:09.203Z,102370.91
2024-05-09T07:06:37.957Z,102359.34
2024-05-09T07:09:08.533Z,102359.47
2024-05-09T07:11:40.788Z,102365.69
2024-05-09T07:14:11.716Z,102364.81
2024-05-09T07:16:40.336Z,102360.22
2024-05-09T07:19:12.182Z,102361.78
2024-05-09T07:21:40.649Z,102357.34
2024-05-09T07:24:11.249Z,102349.31
2024-05-09T07:26:42.433Z,102357.56
2024-05-09T07:29:13.145Z,102348.75
2024-05-09T07:31:41.751Z,102353.97
2024-05-09T07:34:13.583Z,102348.69
2024-05-09T07:36:42.469Z,102347.56
2024-05-09T07:39:13.954Z,102347.53
2024-05-09T07:41:45.130Z,102351.06
2024-05-09T07:44:15.911Z,102338.44
2024-05-09T07:47:48.189Z,102342.78
2024-05-09T07:54:40.733Z,102336.44
2024-05-09T07:57:12.008Z,102338.38
2024-05-09T07:59:42.737Z,102329.59
2024-05-09T08:02:12.345Z,102340.72
2024-05-09T08:04:43.129Z,102333.56
2024-05-09T08:07:11.643Z,102323.88
2024-05-09T08:09:42.477Z,102327.44
2024-05-09T08:12:15.165Z,102322.09
2024-05-09T08:14:45.879Z,102328.50
2024-05-09T08:17:14.528Z,102320.75
2024-05-09T08:19:45.392Z,102319.06
2024-05-09T08:22:14.494Z,102327.09
2024-05-09T08:24:46.836Z,102327.25
2024-05-09T08:27:18.057Z,102328.19
2024-05-09T08:29:49.005Z,102322.84
2024-05-09T08:32:46.799Z,102324.69
2024-05-09T08:35:17.586Z,102327.25
2024-05-09T08:37:47.691Z,102328.03
2024-05-09T08:40:24.241Z,102327.75
2024-05-09T08:43:02.810Z,102314.31
2024-05-09T08:45:35.707Z,102326.06
2024-05-09T08:48:08.026Z,102321.38
2024-05-09T08:50:42.713Z,102320.13
2024-05-09T08:53:11.302Z,102319.66
2024-05-09T08:55:43.971Z,102318.13
2024-05-09T08:58:18.185Z,102323.97
2024-05-09T09:00:49.838Z,102323.13
2024-05-09T09:03:19.868Z,102323.09
2024-05-09T09:05:55.772Z,102319.66
2024-05-09T09:08:25.914Z,102319.66
2024-05-09T09:10:57.370Z,102315.94
2024-05-09T09:13:29.034Z,102307.03
2024-05-09T09:16:01.262Z,102305.41
2024-05-09T09:18:30.702Z,102305.69
2024-05-09T09:21:02.482Z,102310.56
2024-05-09T09:23:31.028Z,102310.00
2024-05-09T09:26:02.361Z,102302.88
2024-05-09T09:28:36.301Z,102310.13
2024-05-09T09:31:07.989Z,102301.81
2024-05-09T09:33:41.751Z,102298.91
2024-05-09T09:36:14.443Z,102300.25
2024-05-09T09:38:43.859Z,102296.78
2024-05-09T09:41:15.857Z,102293.31
2024-05-09T09:43:47.868Z,102295.25
2024-05-09T09:46:18.923Z,102298.53
2024-05-09T09:48:48.213Z,102289.97
2024-05-09T09:51:19.206Z,102292.88
2024-05-09T09:53:51.840Z,102287.97
2024-05-09T09:56:20.461Z,102281.38
2024-05-09T09:58:55.869Z,102281.41
2024-05-09T10:01:24.083Z,102283.91
2024-05-09T10:03:55.972Z,102285.13
2024-05-09T10:06:24.744Z,102279.56
2024-05-09T10:08:56.647Z,102276.78
2024-05-09T10:11:25.953Z,102277.66
2024-05-09T10:14:00.205Z,102270.19
2024-05-09T10:16:30.819Z,102270.94
2024-05-09T10:19:02.271Z,102270.97
2024-05-09T10:21:30.643Z,102266.34
2024-05-09T10:24:02.531Z,102269.13
2024-05-09T10:26:32.075Z,102271.19
2024-05-09T10:29:13.348Z,102264.72
2024-05-09T10:31:41.887Z,102259.72
2024-05-09T10:34:19.772Z,102266.56
2024-05-09T10:36:51.804Z,102264.16
2024-05-09T10:39:23.305Z,102261.81
2024-05-09T10:41:51.264Z,102252.41
2024-05-09T10:44:24.958Z,102250.94
2024-05-09T10:46:54.950Z,102242.66
2024-05-09T10:49:26.352Z,102239.19
2024-05-09T10:51:55.435Z,102238.19
2024-05-09T10:54:26.599Z,102241.47
2024-05-09T10:56:57.854Z,102236.84
2024-05-09T10:59:39.798Z,102233.47
2024-05-09T11:02:08.106Z,102223.50
2024-05-09T11:04:41.009Z,102226.88
2024-05-09T11:07:10.580Z,102218.66
2024-05-09T11:09:42.396Z,102227.34
2024-05-09T11:12:10.966Z,102221.63
2024-05-09T11:14:54.929Z,102214.69
2024-05-09T11:17:23.259Z,102208.56
2024-05-09T11:19:54.520Z,102204.06
2024-05-09T11:22:25.300Z,102196.00
2024-05-09T11:24:56.921Z,102204.94
2024-05-09T11:27:25.252Z,102189.22
2024-05-09T11:29:59.516Z,102192.97
2024-05-09T11:32:28.870Z,102192.22
2024-05-09T11:35:00.197Z,102190.59
2024-05-09T11:37:31.839Z,102185.59
2024-05-09T11:40:06.799Z,102182.91
2024-05-09T11:42:35.123Z,102177.56
2024-05-09T11:45:09.300Z,102169.22
2024-05-09T11:47:38.874Z,102168.78
2024-05-09T11:50:16.019Z,102173.28
2024-05-09T11:52:50.000Z,102174.38
2024-05-09T11:55:26.725Z,102173.78
2024-05-09T11:57:56.179Z,102167.31
2024-05-09T12:00:36.586Z,102165.91
2024-05-09T12:03:06.401Z,102165.47
2024-05-09T12:05:37.797Z,102163.13
2024-05-09T12:08:06.375Z,102160.22
2024-05-09T12:10:37.730Z,102155.66
2024-05-09T12:13:07.081Z,102157.44
2024-05-09T12:15:42.671Z,102143.22
2024-05-09T12:18:10.991Z,102145.94
2024-05-09T12:20:42.249Z,102139.66
2024-05-09T12:23:10.771Z,102141.13
2024-05-09T12:25:42.056Z,102145.13
2024-05-09T12:28:10.167Z,102133.91
2024-05-09T12:30:43.949Z,102135.84
2024-05-09T12:33:13.250Z,102138.72
2024-05-09T12:35:46.750Z,102129.50
2024-05-09T12:38:16.330Z,102133.81
2024-05-09T12:40:47.554Z,102132.69
2024-05-09T12:43:17.422Z,102136.59
2024-05-09T12:45:51.419Z,102130.41
2024-05-09T12:48:19.670Z,102127.72
2024-05-09T12:50:51.818Z,102125.38
2024-05-09T12:53:19.926Z,102126.50
2024-05-09T12:55:56.863Z,102120.88
2024-05-09T12:58:28.238Z,102123.34
2024-05-09T13:01:02.110Z,102118.06
2024-05-09T13:03:30.501Z,102116.00
2024-05-09T13:06:01.747Z,102112.25
2024-05-09T13:08:29.873Z,102098.63
2024-05-09T13:11:01.081Z,102105.56
2024-05-09T13:13:29.414Z,102102.72
2024-05-09T13:16:03.418Z,102099.72
2024-05-09T13:18:33.457Z,102095.13
2024-05-09T13:21:04.694Z,102097.94
2024-05-09T13:23:32.763Z,102094.94
2024-05-09T13:26:03.842Z,102093.72
2024-05-09T13:28:33.640Z,102092.59
2024-05-09T13:31:07.559Z,102095.88
2024-05-09T13:33:35.806Z,102086.84
2024-05-09T13:36:07.350Z,102081.84
2024-05-09T13:38:35.382Z,102081.75
2024-05-09T13:41:06.744Z,102073.91
2024-05-09T13:43:35.031Z,102075.03
2024-05-09T13:46:08.913Z,102073.59
2024-05-09T13:48:37.230Z,102070.28
2024-05-09T13:51:08.668Z,102076.66
2024-05-09T13:53:36.819Z,102075.28
2024-05-09T13:56:08.908Z,102069.84
2024-05-09T13:58:37.059Z,102068.81
2024-05-09T14:01:11.099Z,102064.31
2024-05-09T14:03:39.818Z,102058.44
2024-05-09T14:06:13.189Z,102055.66
2024-05-09T14:08:41.606Z,102054.28
2024-05-09T14:11:12.871Z,102052.84
2024-05-09T14:13:41.152Z,102057.31
2024-05-09T14:16:15.210Z,102062.38
2024-05-09T14:18:43.383Z,102051.84
2024-05-09T14:21:14.466Z,102045.59
2024-05-09T14:23:42.378Z,102042.22
2024-05-09T14:26:13.978Z,102043.38
2024-05-09T14:28:42.029Z,102037.53
2024-05-09T14:31:15.811Z,102037.53
2024-05-09T14:33:43.919Z,102029.81
2024-05-09T14:36:15.275Z,102030.97
2024-05-09T14:38:43.405Z,102036.34
2024-05-09T14:41:14.706Z,102029.84
2024-05-09T14:43:42.803Z,102027.22
2024-05-09T14:46:16.785Z,102025.22
2024-05-09T14:48:45.273Z,102022.81
2024-05-09T14:51:16.615Z,102021.19
2024-05-09T14:53:44.818Z,102015.59
2024-05-09T14:56:15.892Z,102018.22
2024-05-09T14:58:43.889Z,102013.22
2024-05-09T15:01:20.569Z,102009.00
2024-05-09T15:03:48.747Z,102006.72
2024-05-09T15:06:20.090Z,102014.09
2024-05-09T15:08:53.812Z,102008.63
2024-05-09T15:11:25.067Z,102004.22
2024-05-09T15:13:53.205Z,101996.34
2024-05-09T15:16:27.687Z,101995.63
2024-05-09T15:18:56.025Z,101991.19
2024-05-09T15:21:27.331Z,101987.72
2024-05-09T15:23:55.409Z,101992.28
2024-05-09T15:26:26.653Z,101991.50
2024-05-09T15:28:54.941Z,101992.41
2024-05-09T15:31:28.881Z,101992.22
2024-05-09T15:33:57.237Z,101988.94
2024-05-09T15:36:28.634Z,101994.28
2024-05-09T15:38:56.713Z,101993.44
2024-05-09T15:41:28.011Z,101981.94
2024-05-09T15:43:56.107Z,101983.81
2024-05-09T15:46:29.790Z,101970.34
2024-05-09T15:48:58.061Z,101972.25
2024-05-09T15:51:29.422Z,101968.84
2024-05-09T15:53:57.487Z,101969.13
2024-05-09T15:56:28.686Z,101967.38
2024-05-09T15:58:56.974Z,101966.56
2024-05-09T16:01:31.752Z,101964.09
2024-05-09T16:04:00.072Z,101957.84
2024-05-09T16:06:31.496Z,101955.88
2024-05-09T16:08:59.913Z,101966.06
2024-05-09T16:11:31.205Z,101956.25
2024-05-09T16:13:59.599Z,101957.97
2024-05-09T16:16:33.601Z,101958.19
2024-05-09T16:19:01.908Z,101960.94
2024-05-09T16:21:33.136Z,101960.09
2024-05-09T16:24:01.167Z,101960.03
2024-05-09T16:26:32.666Z,101959.91
2024-05-09T16:29:01.063Z,101954.03
2024-05-09T16:31:34.836Z,101953.84
2024-05-09T16:34:03.444Z,101951.53
2024-05-09T16:36:34.921Z,101956.19
2024-05-09T16:39:03.071Z,101954.63
2024-05-09T16:41:34.320Z,101953.03
2024-05-09T16:44:03.241Z,101955.94
2024-05-09T16:46:37.302Z,101957.72
2024-05-09T16:49:05.823Z,101954.25
2024-05-09T16:51:37.119Z,101944.41
2024-05-09T16:54:05.187Z,101942.75
2024-05-09T16:56:36.364Z,101954.47
2024-05-09T16:59:04.431Z,101953.88
2024-05-09T17:01:38.208Z,101949.50
2024-05-09T17:04:06.564Z,101956.69
2024-05-09T17:06:38.004Z,101952.31
2024-05-09T17:09:11.581Z,101960.28
2024-05-09T17:11:43.508Z,101959.38
2024-05-09T17:14:14.259Z,101960.44
2024-05-09T17:16:48.061Z,101962.34
2024-05-09T17:19:16.194Z,101961.56
2024-05-09T17:21:47.221Z,101949.81
2024-05-09T17:24:15.365Z,101950.75
2024-05-09T17:26:46.785Z,101954.31
2024-05-09T17:29:14.846Z,101950.75
2024-05-09T17:31:48.757Z,101951.75
2024-05-09T17:34:17.105Z,101950.75
2024-05-09T17:36:48.776Z,101944.50
2024-05-09T17:39:16.886Z,101941.88
2024-05-09T17:41:48.183Z,101944.56
2024-05-09T17:44:16.526Z,101948.19
2024-05-09T17:46:50.973Z,101946.38
2024-05-09T17:49:19.706Z,101949.13
2024-05-09T17:51:54.129Z,101959.25
2024-05-09T17:54:22.257Z,101943.25
2024-05-09T17:56:53.611Z,101951.25
2024-05-09T17:59:21.691Z,101945.94
2024-05-09T18:01:55.701Z,101945.06
2024-05-09T18:04:23.867Z,101950.66
2024-05-09T18:06:55.188Z,101952.59
2024-05-09T18:09:23.276Z,101946.47
2024-05-09T18:11:54.595Z,101945.75
2024-05-09T18:14:23.321Z,101956.50
2024-05-09T18:16:56.998Z,101952.06
2024-05-09T18:19:25.339Z,101948.63
2024-05-09T18:21:56.773Z,101948.75
2024-05-09T18:24:24.939Z,101951.41
2024-05-09T18:26:56.080Z,101956.78
2024-05-09T18:29:24.077Z,101963.91
2024-05-09T18:31:57.849Z,101963.91
2024-05-09T18:34:26.126Z,101961.38
2024-05-09T18:36:57.453Z,101960.50
2024-05-09T18:39:25.650Z,101963.16
2024-05-09T18:41:56.957Z,101972.03
2024-05-09T18:44:27.540Z,101965.81
2024-05-09T18:47:01.280Z,101964.91
2024-05-09T18:49:29.661Z,101970.22
2024-05-09T18:52:00.999Z,101966.69
2024-05-09T18:54:29.013Z,101976.44
2024-05-09T18:57:00.118Z,101974.59
2024-05-09T18:59:28.185Z,101978.09
2024-05-09T19:02:02.138Z,101976.31
2024-05-09T19:04:30.327Z,101975.41
2024-05-09T19:07:04.310Z,101925.66
2024-05-09T19:09:32.500Z,101978.06
2024-05-09T19:12:06.545Z,101981.63
2024-05-09T19:14:34.608Z,101977.19
2024-05-09T19:17:08.308Z,101977.16
2024-05-09T19:19:36.407Z,101975.44
2024-05-09T19:22:09.057Z,101972.72
2024-05-09T19:24:38.258Z,101969.19
2024-05-09T19:27:09.377Z,101970.97
2024-05-09T19:29:37.475Z,101970.94
2024-05-09T19:32:11.534Z,101965.53
2024-05-09T19:34:39.645Z,101974.34
2024-05-09T19:37:10.692Z,101974.19
2024-05-09T19:39:38.904Z,101972.31
2024-05-09T19:42:09.980Z,101980.28
2024-05-09T19:44:37.993Z,101976.69
2024-05-09T19:47:11.965Z,101978.41
2024-05-09T19:49:40.086Z,101983.72
2024-05-09T19:52:11.364Z,101978.41
2024-05-09T19:54:39.601Z,101988.19
2024-05-09T19:57:10.785Z,101982.91
2024-05-09T19:59:38.776Z,101986.47
2024-05-09T20:02:13.237Z,101974.91
2024-05-09T20:04:45.114Z,101971.34
2024-05-09T20:07:16.560Z,101973.94
2024-05-09T20:09:44.720Z,101977.53
2024-05-09T20:12:15.853Z,101975.75
2024-05-09T20:14:43.982Z,101974.88
2024-05-09T20:17:17.728Z,101969.56
2024-05-09T20:19:46.790Z,101964.25
2024-05-09T20:22:18.035Z,101965.13
2024-05-09T20:24:46.349Z,101963.25
2024-05-09T20:27:17.947Z,101958.69
2024-05-09T20:29:46.279Z,101904.38
2024-05-09T20:32:20.038Z,101969.06
2024-05-09T20:34:50.602Z,101959.28
2024-05-09T20:37:22.012Z,101955.53
2024-05-09T20:39:50.129Z,101956.38
2024-05-09T20:42:21.293Z,101959.00
2024-05-09T20:44:49.484Z,101956.28
2024-05-09T20:47:24.306Z,101954.44
2024-05-09T20:49:52.349Z,101964.91
2024-05-09T20:52:24.255Z,101941.88
2024-05-09T20:54:52.335Z,101955.03
2024-05-09T20:57:23.411Z,101947.91
2024-05-09T20:59:51.440Z,101949.72
2024-05-09T21:02:25.418Z,101884.56
2024-05-09T21:04:53.748Z,101935.25
2024-05-09T21:07:24.863Z,101943.88
2024-05-09T21:09:52.915Z,101938.59
2024-05-09T21:12:24.024Z,101938.50
2024-05-09T21:14:52.112Z,101938.59
2024-05-09T21:17:25.914Z,101933.28
2024-05-09T21:19:53.922Z,101934.00
2024-05-09T21:22:25.070Z,101930.56
2024-05-09T21:24:53.158Z,101934.84
2024-05-09T21:27:24.705Z,101927.81
2024-05-09T21:29:52.806Z,101907.25
2024-05-09T21:32:26.543Z,101920.75
2024-05-09T21:34:57.225Z,101928.53
2024-05-09T21:37:25.736Z,101925.84
2024-05-09T21:39:56.501Z,101924.97
2024-05-09T21:42:25.044Z,101921.47
2024-05-09T21:44:55.779Z,101908.25
2024-05-09T21:47:26.972Z,101906.50
2024-05-09T21:49:57.755Z,101917.03
2024-05-09T21:52:26.970Z,101917.81
2024-05-09T21:54:57.792Z,101919.72
2024-05-09T21:57:26.387Z,101917.94
2024-05-09T21:59:57.033Z,101918.66
2024-05-09T22:02:28.355Z,101919.44
2024-05-09T22:05:01.813Z,101911.59
2024-05-09T22:07:30.443Z,101912.47
2024-05-09T22:10:01.200Z,101917.75
2024-05-09T22:12:30.000Z,101859.16
2024-05-09T22:15:00.861Z,101902.81
2024-05-09T22:17:31.989Z,101899.28
2024-05-09T22:20:05.784Z,101891.34
2024-05-09T22:22:35.848Z,101894.00
2024-05-09T22:25:06.856Z,101889.59
2024-05-09T22:27:35.372Z,101886.97
2024-05-09T22:30:09.215Z,101888.81
2024-05-09T22:32:43.157Z,101885.38
2024-05-09T22:35:13.867Z,101880.09
2024-05-09T22:37:42.441Z,101875.75
2024-05-09T22:40:20.704Z,101883.72
2024-05-09T22:42:57.048Z,101878.44
2024-05-09T22:45:27.758Z,101875.78
2024-05-09T22:47:59.219Z,101878.44
2024-05-09T22:50:33.287Z,101879.38
2024-05-09T22:53:02.413Z,101882.09
2024-05-09T22:55:33.143Z,101873.28
2024-05-09T22:58:01.725Z,101864.53
2024-05-09T23:00:33.190Z,101866.38
2024-05-09T23:03:04.902Z,101864.63
2024-05-09T23:05:35.742Z,101867.25
2024-05-09T23:08:04.546Z,101863.78
2024-05-09T23:10:37.691Z,101858.56
2024-05-09T23:13:07.942Z,101861.34
2024-05-09T23:15:39.768Z,101864.00
2024-05-09T23:18:11.398Z,101854.34
2024-05-09T23:20:42.137Z,101847.34
2024-05-09T23:23:11.876Z,101845.59
2024-05-09T23:25:43.812Z,101838.59
2024-05-09T23:28:12.709Z,101828.94
2024-05-09T23:30:43.709Z,101825.47
2024-05-09T23:33:15.063Z,101817.56
2024-05-09T23:35:46.412Z,101821.19
2024-05-09T23:38:14.850Z,101819.50
2024-05-09T23:40:45.806Z,101814.25
2024-05-09T23:43:15.052Z,101817.84
2024-05-09T23:45:46.114Z,101823.25
2024-05-09T23:48:17.294Z,101805.56
2024-05-09T23:50:48.083Z,101810.91
2024-05-09T23:53:16.557Z,101804.81
2024-05-09T23:55:47.193Z,101804.81
2024-05-09T23:58:15.819Z,101799.53
